Volcan De Tamasite — ECFE — position and weather

sailwx.info

Track history (hours):
 
Tides and Currents Weather Stations Pressure Air Temp Water Temp Dewpoint Dewpoint Depression Visibility Wind Speed Wind Dir Waves Ship Positions

Volcan De Tamasite

Last reported at 2016-Dec-08 21:16 UTC. Time now 2016-Dec-08 22:12 UTC.
Position N 28°20' W 015°49'.

Length 141 m; draft 5.4 m.

Type: Passenger vessel. MMSI: 224093000.

Date/timePositionNaut miles runAvg speedWind from/ knotsBaromVisibWave heightAir tempDewpointWater temp
2016-Dec-08 21:16N 28°20' W 015°49'1521.6
2016-Dec-08 20:33N 28°15' W 015°33'9 8.8
2016-Dec-08 19:32N 28°10' W 015°24'0 0.3
2016-Dec-08 18:33N 28°09' W 015°24'1817.8
2016-Dec-08 17:34N 28°18' W 015°42'2221.7
2016-Dec-08 16:34N 28°25' W 016°05'9 6.4
2016-Dec-08 15:07N 28°28' W 016°15'0 0.3
2016-Dec-08 14:33N 28°28' W 016°15'2217.9
2016-Dec-08 13:19N 28°21' W 015°51'1621.6
2016-Dec-08 12:33N 28°15' W 015°33'10 9.9
2016-Dec-08 11:33N 28°10' W 015°24'0 0.0
2016-Dec-08 10:33N 28°10' W 015°24'7 7.0
2016-Dec-08 09:33N 28°14' W 015°30'2121.0
2016-Dec-08 08:33N 28°21' W 015°53'2120.5
2016-Dec-08 07:33N 28°29' W 016°14'25 2.5
2016-Dec-07 21:26N 28°20' W 015°47'1921.4
2016-Dec-07 20:34N 28°13' W 015°28'5 4.8
2016-Dec-07 19:33N 28°10' W 015°24'4 3.6
2016-Dec-07 18:34N 28°08' W 015°20'2121.1
2016-Dec-07 17:34N 28°05' W 014°56'2121.1
2016-Dec-07 16:33N 28°02' W 014°33'2 0.3
2016-Dec-07 10:23N 28°02' W 014°31'1721.1
2016-Dec-07 09:33N 28°04' W 014°50'2121.1
2016-Dec-07 08:33N 28°06' W 015°14'10 9.8
2016-Dec-07 07:33N 28°08' W 015°25'0 0.0
2016-Dec-07 06:33N 28°08' W 015°25'0 0.0
2016-Dec-07 05:33N 28°08' W 015°25'0 0.0
2016-Dec-07 04:33N 28°08' W 015°25'0 0.0
2016-Dec-07 03:33N 28°08' W 015°25'0 0.0
2016-Dec-07 02:33N 28°08' W 015°25'0 0.0
2016-Dec-07 01:33N 28°08' W 015°25'0 0.0
2016-Dec-07 00:33N 28°08' W 015°25'0 0.0
2016-Dec-06 23:33N 28°08' W 015°25'0 0.0
2016-Dec-06 22:33N 28°08' W 015°25'0 0.0
2016-Dec-06 21:33N 28°08' W 015°25'0 0.0
2016-Dec-06 20:33N 28°08' W 015°25'3 1.7
2016-Dec-06 18:33N 28°07' W 015°21'2121.5
2016-Dec-06 17:33N 28°04' W 014°57'2121.4
2016-Dec-06 16:33N 28°02' W 014°33'10 2.3
2016-Dec-06 12:18N 28°03' W 014°22'0 0.0
2016-Dec-06 11:33N 28°03' W 014°22'6 6.1
2016-Dec-06 10:32N 28°02' W 014°29'2121.3
2016-Dec-06 09:33N 28°04' W 014°52'2121.5
2016-Dec-06 08:34N 28°07' W 015°16'8 6.8
2016-Dec-06 07:25N 28°08' W 015°25'0 0.0
2016-Dec-06 06:25N 28°08' W 015°25'0 0.0
2016-Dec-06 05:28N 28°08' W 015°25'0 0.0
2016-Dec-06 04:28N 28°08' W 015°25'0 0.0
2016-Dec-06 03:31N 28°08' W 015°25'0 0.0
2016-Dec-06 02:31N 28°08' W 015°25'0 0.0
2016-Dec-06 01:31N 28°08' W 015°25'0 0.0
2016-Dec-06 00:31N 28°08' W 015°25'0 0.0
2016-Dec-05 23:31N 28°08' W 015°25'0 0.0
2016-Dec-05 22:31N 28°08' W 015°25'0 0.0
2016-Dec-05 21:33N 28°08' W 015°25'0 0.0
2016-Dec-05 20:33N 28°08' W 015°25'0 0.0
2016-Dec-05 19:33N 28°08' W 015°25'4 3.8
2016-Dec-05 18:33N 28°07' W 015°21'2120.8
2016-Dec-05 17:33N 28°04' W 014°57'2120.6
2016-Dec-05 16:33N 28°02' W 014°34'11 2.6
2016-Dec-05 12:20N 28°03' W 014°22'0 0.0
2016-Dec-05 11:32N 28°03' W 014°22'7 6.5
2016-Dec-05 10:28N 28°02' W 014°30'1921.2
2016-Dec-05 09:33N 28°04' W 014°51'2221.5
2016-Dec-05 08:33N 28°06' W 015°16'8 6.2
2016-Dec-05 07:12N 28°08' W 015°25'0 0.0
2016-Dec-05 06:30N 28°08' W 015°25'0 0.0
2016-Dec-05 05:30N 28°08' W 015°25'0 0.0
2016-Dec-05 03:33N 28°08' W 015°25'0 0.0
2016-Dec-05 02:33N 28°08' W 015°25'0 0.0
2016-Dec-05 01:33N 28°08' W 015°25'0 0.0
2016-Dec-05 00:33N 28°08' W 015°25'0 0.0
2016-Dec-04 23:33N 28°08' W 015°25'0 0.0
2016-Dec-04 22:33N 28°08' W 015°25'0 0.0
2016-Dec-04 21:33N 28°08' W 015°25'1514.7
2016-Dec-04 20:33N 28°06' W 015°08'2020.3
2016-Dec-04 19:33N 28°03' W 014°46'2020.3
2016-Dec-04 18:33N 28°03' W 014°23'1 0.7
2016-Dec-04 17:33N 28°03' W 014°22'8 6.8
2016-Dec-04 16:24N 28°02' W 014°31'1821.6
2016-Dec-04 15:33N 28°04' W 014°51'2121.3
2016-Dec-04 14:33N 28°06' W 015°15'9 8.7
2016-Dec-04 13:33N 28°08' W 015°25'0 0.0
2016-Dec-04 12:33N 28°08' W 015°25'0 0.0
2016-Dec-04 11:33N 28°08' W 015°25'1 1.4
2016-Dec-04 10:34N 28°07' W 015°24'1918.9
2016-Dec-04 09:34N 28°18' W 015°42'2121.1
2016-Dec-04 08:33N 28°25' W 016°04'10 9.7
2016-Dec-04 07:33N 28°28' W 016°15'23 2.3
2016-Dec-03 21:31N 28°21' W 015°50'2020.8
2016-Dec-03 20:33N 28°13' W 015°29'5 5.4
2016-Dec-03 19:33N 28°10' W 015°24'1 1.1
2016-Dec-03 18:33N 28°09' W 015°23'2121.4
2016-Dec-03 17:33N 28°06' W 014°59'2121.3
2016-Dec-03 16:33N 28°02' W 014°35'1211.9
2016-Dec-03 15:33N 28°03' W 014°22'0 0.0
2016-Dec-03 14:33N 28°03' W 014°22'0 0.2
2016-Dec-03 13:33N 28°03' W 014°22'2120.7
2016-Dec-03 12:33N 28°04' W 014°46'2221.9
2016-Dec-03 11:33N 28°07' W 015°10'1312.5
2016-Dec-03 10:33N 28°10' W 015°24'10 9.7
2016-Dec-03 09:33N 28°15' W 015°33'2121.4
2016-Dec-03 08:33N 28°23' W 015°56'18 4.2
2016-Dec-03 04:25N 28°28' W 016°15'0 0.0
2016-Dec-03 03:21N 28°28' W 016°15'0 0.0
2016-Dec-03 02:32N 28°28' W 016°15'0 0.0
2016-Dec-03 00:32N 28°28' W 016°15'22 9.5
2016-Dec-02 22:15N 28°21' W 015°51'1420.6
2016-Dec-02 21:33N 28°16' W 015°36'1312.7
2016-Dec-02 20:33N 28°10' W 015°24'0 0.2
2016-Dec-02 19:33N 28°09' W 015°24'1918.8
2016-Dec-02 18:33N 28°06' W 015°03'2020.4
2016-Dec-02 17:33N 28°03' W 014°40'1616.2
2016-Dec-02 16:33N 28°03' W 014°22'0 0.0
2016-Dec-02 15:33N 28°03' W 014°22'0 0.0
2016-Dec-02 14:33N 28°03' W 014°22'8 5.8
2016-Dec-02 13:13N 28°02' W 014°30'1421.7
2016-Dec-02 12:34N 28°04' W 014°47'2221.9
2016-Dec-02 11:34N 28°07' W 015°11'1211.6
2016-Dec-02 10:33N 28°10' W 015°24'1212.0
2016-Dec-02 09:33N 28°16' W 015°36'2121.5
2016-Dec-02 08:34N 28°24' W 015°58'1514.6
2016-Dec-02 07:31N 28°28' W 016°15'0 0.0
2016-Dec-02 06:33N 28°28' W 016°15'0 0.0
2016-Dec-02 05:32N 28°28' W 016°15'0 0.0
2016-Dec-02 01:13N 28°28' W 016°15'0 0.0
2016-Dec-02 00:31N 28°28' W 016°15'23 7.6
2016-Dec-01 21:32N 28°21' W 015°50'2121.0
2016-Dec-01 20:33N 28°13' W 015°29'6 5.6
2016-Dec-01 19:33N 28°10' W 015°24'0 0.4
2016-Dec-01 18:33N 28°09' W 015°24'1818.1
2016-Dec-01 17:33N 28°18' W 015°42'2121.1
2016-Dec-01 16:33N 28°25' W 016°04'9 6.6
2016-Dec-01 15:08N 28°28' W 016°15'0 0.3
2016-Dec-01 14:27N 28°28' W 016°15'2219.0
2016-Dec-01 13:18N 28°21' W 015°51'1622.0
2016-Dec-01 12:34N 28°15' W 015°34'1010.3
2016-Dec-01 11:33N 28°10' W 015°24'0 0.0
2016-Dec-01 10:33N 28°10' W 015°24'1413.8
2016-Dec-01 09:33N 28°16' W 015°37'2120.6
2016-Dec-01 08:34N 28°23' W 015°60'10 0.9
2016-Nov-30 21:20N 28°20' W 015°49'1620.7
2016-Nov-30 20:33N 28°14' W 015°32'8 8.2
2016-Nov-30 19:33N 28°10' W 015°24'2 1.6
2016-Nov-30 18:33N 28°09' W 015°22'2121.2
2016-Nov-30 17:33N 28°05' W 014°59'2121.1
2016-Nov-30 16:33N 28°02' W 014°35'1211.6
2016-Nov-30 15:33N 28°03' W 014°22'0 0.0
2016-Nov-30 14:33N 28°03' W 014°22'0 0.0
2016-Nov-30 13:32N 28°03' W 014°22'0 0.0
2016-Nov-30 12:33N 28°03' W 014°22'0 0.0
2016-Nov-30 11:33N 28°03' W 014°22'9 7.1
2016-Nov-30 10:20N 28°02' W 014°31'1721.6
2016-Nov-30 09:33N 28°04' W 014°51'2221.6
2016-Nov-30 08:33N 28°06' W 015°15'9 8.9
2016-Nov-30 07:33N 28°08' W 015°25'0 0.0
2016-Nov-30 06:33N 28°08' W 015°25'0 0.0
2016-Nov-30 05:33N 28°08' W 015°25'0 0.0
2016-Nov-30 04:33N 28°08' W 015°25'0 0.0
2016-Nov-30 03:33N 28°08' W 015°25'0 0.0
2016-Nov-30 02:33N 28°08' W 015°25'0 0.0
2016-Nov-30 01:33N 28°08' W 015°25'0 0.0
2016-Nov-30 00:33N 28°08' W 015°25'0 0.0
2016-Nov-29 23:33N 28°08' W 015°25'0 0.0
2016-Nov-29 22:33N 28°08' W 015°25'0 0.0
2016-Nov-29 21:33N 28°08' W 015°25'0 0.0
2016-Nov-29 20:33N 28°08' W 015°25'0 0.0
2016-Nov-29 19:33N 28°08' W 015°25'6 5.9
2016-Nov-29 18:34N 28°07' W 015°18'2121.3
2016-Nov-29 17:33N 28°04' W 014°54'2120.9
2016-Nov-29 16:33N 28°02' W 014°31'8 7.2
2016-Nov-29 15:26N 28°03' W 014°22'0 0.0
2016-Nov-29 14:33N 28°03' W 014°22'0 0.0
2016-Nov-29 13:33N 28°03' W 014°22'0 0.0
2016-Nov-29 12:33N 28°03' W 014°22'0 0.0
2016-Nov-29 11:30N 28°03' W 014°22'8 7.0
2016-Nov-29 10:19N 28°02' W 014°31'1621.1
2016-Nov-29 09:32N 28°04' W 014°49'2121.3
2016-Nov-29 08:33N 28°06' W 015°13'1110.6
2016-Nov-29 07:33N 28°08' W 015°25'0 0.0
2016-Nov-29 06:33N 28°08' W 015°25'0 0.0
2016-Nov-29 05:33N 28°08' W 015°25'0 0.0
2016-Nov-29 04:33N 28°08' W 015°25'0 0.0
2016-Nov-29 03:33N 28°08' W 015°25'0 0.0
2016-Nov-29 02:33N 28°08' W 015°25'0 0.0
2016-Nov-29 01:33N 28°08' W 015°25'0 0.0
2016-Nov-29 00:33N 28°08' W 015°25'0 0.0
2016-Nov-28 23:33N 28°08' W 015°25'0 0.0
2016-Nov-28 22:33N 28°08' W 015°25'0 0.0
2016-Nov-28 21:33N 28°08' W 015°25'  
Track history (hours):
 
Tides and Currents Weather Stations Pressure Air Temp Water Temp Dewpoint Dewpoint Depression Visibility Wind Speed Wind Dir Waves Ship Positions

Volcan De Tamasite

Last reported at 2016-Dec-08 21:16 UTC. Time now 2016-Dec-08 22:12 UTC.
Position N 28°20' W 015°49'.

Length 141 m; draft 5.4 m.

Type: Passenger vessel. MMSI: 224093000.

Date/timePositionNaut miles runAvg speedWind from/ knotsBaromVisibWave heightAir tempDewpointWater temp
2016-Dec-08 21:16N 28°20' W 015°49'1521.6
2016-Dec-08 20:33N 28°15' W 015°33'9 8.8
2016-Dec-08 19:32N 28°10' W 015°24'0 0.3
2016-Dec-08 18:33N 28°09' W 015°24'1817.8
2016-Dec-08 17:34N 28°18' W 015°42'2221.7
2016-Dec-08 16:34N 28°25' W 016°05'9 6.4
2016-Dec-08 15:07N 28°28' W 016°15'0 0.3
2016-Dec-08 14:33N 28°28' W 016°15'2217.9
2016-Dec-08 13:19N 28°21' W 015°51'1621.6
2016-Dec-08 12:33N 28°15' W 015°33'10 9.9
2016-Dec-08 11:33N 28°10' W 015°24'0 0.0
2016-Dec-08 10:33N 28°10' W 015°24'7 7.0
2016-Dec-08 09:33N 28°14' W 015°30'2121.0
2016-Dec-08 08:33N 28°21' W 015°53'2120.5
2016-Dec-08 07:33N 28°29' W 016°14'25 2.5
2016-Dec-07 21:26N 28°20' W 015°47'1921.4
2016-Dec-07 20:34N 28°13' W 015°28'5 4.8
2016-Dec-07 19:33N 28°10' W 015°24'4 3.6
2016-Dec-07 18:34N 28°08' W 015°20'2121.1
2016-Dec-07 17:34N 28°05' W 014°56'2121.1
2016-Dec-07 16:33N 28°02' W 014°33'2 0.3
2016-Dec-07 10:23N 28°02' W 014°31'1721.1
2016-Dec-07 09:33N 28°04' W 014°50'2121.1
2016-Dec-07 08:33N 28°06' W 015°14'10 9.8
2016-Dec-07 07:33N 28°08' W 015°25'0 0.0
2016-Dec-07 06:33N 28°08' W 015°25'0 0.0
2016-Dec-07 05:33N 28°08' W 015°25'0 0.0
2016-Dec-07 04:33N 28°08' W 015°25'0 0.0
2016-Dec-07 03:33N 28°08' W 015°25'0 0.0
2016-Dec-07 02:33N 28°08' W 015°25'0 0.0
2016-Dec-07 01:33N 28°08' W 015°25'0 0.0
2016-Dec-07 00:33N 28°08' W 015°25'0 0.0
2016-Dec-06 23:33N 28°08' W 015°25'0 0.0
2016-Dec-06 22:33N 28°08' W 015°25'0 0.0
2016-Dec-06 21:33N 28°08' W 015°25'0 0.0
2016-Dec-06 20:33N 28°08' W 015°25'3 1.7
2016-Dec-06 18:33N 28°07' W 015°21'2121.5
2016-Dec-06 17:33N 28°04' W 014°57'2121.4
2016-Dec-06 16:33N 28°02' W 014°33'10 2.3
2016-Dec-06 12:18N 28°03' W 014°22'0 0.0
2016-Dec-06 11:33N 28°03' W 014°22'6 6.1
2016-Dec-06 10:32N 28°02' W 014°29'2121.3
2016-Dec-06 09:33N 28°04' W 014°52'2121.5
2016-Dec-06 08:34N 28°07' W 015°16'8 6.8
2016-Dec-06 07:25N 28°08' W 015°25'0 0.0
2016-Dec-06 06:25N 28°08' W 015°25'0 0.0
2016-Dec-06 05:28N 28°08' W 015°25'0 0.0
2016-Dec-06 04:28N 28°08' W 015°25'0 0.0
2016-Dec-06 03:31N 28°08' W 015°25'0 0.0
2016-Dec-06 02:31N 28°08' W 015°25'0 0.0
2016-Dec-06 01:31N 28°08' W 015°25'0 0.0
2016-Dec-06 00:31N 28°08' W 015°25'0 0.0
2016-Dec-05 23:31N 28°08' W 015°25'0 0.0
2016-Dec-05 22:31N 28°08' W 015°25'0 0.0
2016-Dec-05 21:33N 28°08' W 015°25'0 0.0
2016-Dec-05 20:33N 28°08' W 015°25'0 0.0
2016-Dec-05 19:33N 28°08' W 015°25'4 3.8
2016-Dec-05 18:33N 28°07' W 015°21'2120.8
2016-Dec-05 17:33N 28°04' W 014°57'2120.6
2016-Dec-05 16:33N 28°02' W 014°34'11 2.6
2016-Dec-05 12:20N 28°03' W 014°22'0 0.0
2016-Dec-05 11:32N 28°03' W 014°22'7 6.5
2016-Dec-05 10:28N 28°02' W 014°30'1921.2
2016-Dec-05 09:33N 28°04' W 014°51'2221.5
2016-Dec-05 08:33N 28°06' W 015°16'8 6.2
2016-Dec-05 07:12N 28°08' W 015°25'0 0.0
2016-Dec-05 06:30N 28°08' W 015°25'0 0.0
2016-Dec-05 05:30N 28°08' W 015°25'0 0.0
2016-Dec-05 03:33N 28°08' W 015°25'0 0.0
2016-Dec-05 02:33N 28°08' W 015°25'0 0.0
2016-Dec-05 01:33N 28°08' W 015°25'0 0.0
2016-Dec-05 00:33N 28°08' W 015°25'0 0.0
2016-Dec-04 23:33N 28°08' W 015°25'0 0.0
2016-Dec-04 22:33N 28°08' W 015°25'0 0.0
2016-Dec-04 21:33N 28°08' W 015°25'1514.7
2016-Dec-04 20:33N 28°06' W 015°08'2020.3
2016-Dec-04 19:33N 28°03' W 014°46'2020.3
2016-Dec-04 18:33N 28°03' W 014°23'1 0.7
2016-Dec-04 17:33N 28°03' W 014°22'8 6.8
2016-Dec-04 16:24N 28°02' W 014°31'1821.6
2016-Dec-04 15:33N 28°04' W 014°51'2121.3
2016-Dec-04 14:33N 28°06' W 015°15'9 8.7
2016-Dec-04 13:33N 28°08' W 015°25'0 0.0
2016-Dec-04 12:33N 28°08' W 015°25'0 0.0
2016-Dec-04 11:33N 28°08' W 015°25'1 1.4
2016-Dec-04 10:34N 28°07' W 015°24'1918.9
2016-Dec-04 09:34N 28°18' W 015°42'2121.1
2016-Dec-04 08:33N 28°25' W 016°04'10 9.7
2016-Dec-04 07:33N 28°28' W 016°15'23 2.3
2016-Dec-03 21:31N 28°21' W 015°50'2020.8
2016-Dec-03 20:33N 28°13' W 015°29'5 5.4
2016-Dec-03 19:33N 28°10' W 015°24'1 1.1
2016-Dec-03 18:33N 28°09' W 015°23'2121.4
2016-Dec-03 17:33N 28°06' W 014°59'2121.3
2016-Dec-03 16:33N 28°02' W 014°35'1211.9
2016-Dec-03 15:33N 28°03' W 014°22'0 0.0
2016-Dec-03 14:33N 28°03' W 014°22'0 0.2
2016-Dec-03 13:33N 28°03' W 014°22'2120.7
2016-Dec-03 12:33N 28°04' W 014°46'2221.9
2016-Dec-03 11:33N 28°07' W 015°10'1312.5
2016-Dec-03 10:33N 28°10' W 015°24'10 9.7
2016-Dec-03 09:33N 28°15' W 015°33'2121.4
2016-Dec-03 08:33N 28°23' W 015°56'18 4.2
2016-Dec-03 04:25N 28°28' W 016°15'0 0.0
2016-Dec-03 03:21N 28°28' W 016°15'0 0.0
2016-Dec-03 02:32N 28°28' W 016°15'0 0.0
2016-Dec-03 00:32N 28°28' W 016°15'22 9.5
2016-Dec-02 22:15N 28°21' W 015°51'1420.6
2016-Dec-02 21:33N 28°16' W 015°36'1312.7
2016-Dec-02 20:33N 28°10' W 015°24'0 0.2
2016-Dec-02 19:33N 28°09' W 015°24'1918.8
2016-Dec-02 18:33N 28°06' W 015°03'2020.4
2016-Dec-02 17:33N 28°03' W 014°40'1616.2
2016-Dec-02 16:33N 28°03' W 014°22'0 0.0
2016-Dec-02 15:33N 28°03' W 014°22'0 0.0
2016-Dec-02 14:33N 28°03' W 014°22'8 5.8
2016-Dec-02 13:13N 28°02' W 014°30'1421.7
2016-Dec-02 12:34N 28°04' W 014°47'2221.9
2016-Dec-02 11:34N 28°07' W 015°11'1211.6
2016-Dec-02 10:33N 28°10' W 015°24'1212.0
2016-Dec-02 09:33N 28°16' W 015°36'2121.5
2016-Dec-02 08:34N 28°24' W 015°58'1514.6
2016-Dec-02 07:31N 28°28' W 016°15'0 0.0
2016-Dec-02 06:33N 28°28' W 016°15'0 0.0
2016-Dec-02 05:32N 28°28' W 016°15'0 0.0
2016-Dec-02 01:13N 28°28' W 016°15'0 0.0
2016-Dec-02 00:31N 28°28' W 016°15'23 7.6
2016-Dec-01 21:32N 28°21' W 015°50'2121.0
2016-Dec-01 20:33N 28°13' W 015°29'6 5.6
2016-Dec-01 19:33N 28°10' W 015°24'0 0.4
2016-Dec-01 18:33N 28°09' W 015°24'1818.1
2016-Dec-01 17:33N 28°18' W 015°42'2121.1
2016-Dec-01 16:33N 28°25' W 016°04'9 6.6
2016-Dec-01 15:08N 28°28' W 016°15'0 0.3
2016-Dec-01 14:27N 28°28' W 016°15'2219.0
2016-Dec-01 13:18N 28°21' W 015°51'1622.0
2016-Dec-01 12:34N 28°15' W 015°34'1010.3
2016-Dec-01 11:33N 28°10' W 015°24'0 0.0
2016-Dec-01 10:33N 28°10' W 015°24'1413.8
2016-Dec-01 09:33N 28°16' W 015°37'2120.6
2016-Dec-01 08:34N 28°23' W 015°60'10 0.9
2016-Nov-30 21:20N 28°20' W 015°49'1620.7
2016-Nov-30 20:33N 28°14' W 015°32'8 8.2
2016-Nov-30 19:33N 28°10' W 015°24'2 1.6
2016-Nov-30 18:33N 28°09' W 015°22'2121.2
2016-Nov-30 17:33N 28°05' W 014°59'2121.1
2016-Nov-30 16:33N 28°02' W 014°35'1211.6
2016-Nov-30 15:33N 28°03' W 014°22'0 0.0
2016-Nov-30 14:33N 28°03' W 014°22'0 0.0
2016-Nov-30 13:32N 28°03' W 014°22'0 0.0
2016-Nov-30 12:33N 28°03' W 014°22'0 0.0
2016-Nov-30 11:33N 28°03' W 014°22'9 7.1
2016-Nov-30 10:20N 28°02' W 014°31'1721.6
2016-Nov-30 09:33N 28°04' W 014°51'2221.6
2016-Nov-30 08:33N 28°06' W 015°15'9 8.9
2016-Nov-30 07:33N 28°08' W 015°25'0 0.0
2016-Nov-30 06:33N 28°08' W 015°25'0 0.0
2016-Nov-30 05:33N 28°08' W 015°25'0 0.0
2016-Nov-30 04:33N 28°08' W 015°25'0 0.0
2016-Nov-30 03:33N 28°08' W 015°25'0 0.0
2016-Nov-30 02:33N 28°08' W 015°25'0 0.0
2016-Nov-30 01:33N 28°08' W 015°25'0 0.0
2016-Nov-30 00:33N 28°08' W 015°25'0 0.0
2016-Nov-29 23:33N 28°08' W 015°25'0 0.0
2016-Nov-29 22:33N 28°08' W 015°25'0 0.0
2016-Nov-29 21:33N 28°08' W 015°25'0 0.0
2016-Nov-29 20:33N 28°08' W 015°25'0 0.0
2016-Nov-29 19:33N 28°08' W 015°25'6 5.9
2016-Nov-29 18:34N 28°07' W 015°18'2121.3
2016-Nov-29 17:33N 28°04' W 014°54'2120.9
2016-Nov-29 16:33N 28°02' W 014°31'8 7.2
2016-Nov-29 15:26N 28°03' W 014°22'0 0.0
2016-Nov-29 14:33N 28°03' W 014°22'0 0.0
2016-Nov-29 13:33N 28°03' W 014°22'0 0.0
2016-Nov-29 12:33N 28°03' W 014°22'0 0.0
2016-Nov-29 11:30N 28°03' W 014°22'8 7.0
2016-Nov-29 10:19N 28°02' W 014°31'1621.1
2016-Nov-29 09:32N 28°04' W 014°49'2121.3
2016-Nov-29 08:33N 28°06' W 015°13'1110.6
2016-Nov-29 07:33N 28°08' W 015°25'0 0.0
2016-Nov-29 06:33N 28°08' W 015°25'0 0.0
2016-Nov-29 05:33N 28°08' W 015°25'0 0.0
2016-Nov-29 04:33N 28°08' W 015°25'0 0.0
2016-Nov-29 03:33N 28°08' W 015°25'0 0.0
2016-Nov-29 02:33N 28°08' W 015°25'0 0.0
2016-Nov-29 01:33N 28°08' W 015°25'0 0.0
2016-Nov-29 00:33N 28°08' W 015°25'0 0.0
2016-Nov-28 23:33N 28°08' W 015°25'0 0.0
2016-Nov-28 22:33N 28°08' W 015°25'0 0.0
2016-Nov-28 21:33N 28°08' W 015°25'  

Dump ship's entire track history